sensor_id;sensor_type;location;lat;lon;timestamp;pressure;altitude;pressure_sealevel;temperature;humidity
40315;BME280;26021;45.640;11.302;2022-07-29T00:01:32;98722.28;;;20.71;100.00
40315;BME280;26021;45.640;11.302;2022-07-29T00:03:58;98707.44;;;20.62;100.00
40315;BME280;26021;45.640;11.302;2022-07-29T00:06:23;98697.75;;;20.66;100.00
40315;BME280;26021;45.640;11.302;2022-07-29T00:08:49;98686.53;;;20.79;100.00
40315;BME280;26021;45.640;11.302;2022-07-29T00:11:14;98662.34;;;20.78;100.00
40315;BME280;26021;45.640;11.302;2022-07-29T00:13:40;98668.22;;;20.86;100.00
40315;BME280;26021;45.640;11.302;2022-07-29T00:16:05;98620.66;;;20.55;100.00
40315;BME280;26021;45.640;11.302;2022-07-29T00:18:31;98648.41;;;20.74;100.00
40315;BME280;26021;45.640;11.302;2022-07-29T00:20:57;98624.28;;;20.61;100.00
40315;BME280;26021;45.640;11.302;2022-07-29T00:23:22;98658.47;;;20.74;100.00
40315;BME280;26021;45.640;11.302;2022-07-29T00:25:48;98644.28;;;20.72;100.00
40315;BME280;26021;45.640;11.302;2022-07-29T00:28:13;98654.84;;;20.68;100.00
40315;BME280;26021;45.640;11.302;2022-07-29T00:30:38;98647.91;;;20.60;100.00
40315;BME280;26021;45.640;11.302;2022-07-29T00:33:04;98641.66;;;20.60;100.00
40315;BME280;26021;45.640;11.302;2022-07-29T00:35:30;98641.91;;;20.58;100.00
40315;BME280;26021;45.640;11.302;2022-07-29T00:38:16;98574.56;;;20.44;100.00
40315;BME280;26021;45.640;11.302;2022-07-29T00:40:42;98594.06;;;20.41;100.00
40315;BME280;26021;45.640;11.302;2022-07-29T00:43:08;98578.97;;;20.33;100.00
40315;BME280;26021;45.640;11.302;2022-07-29T00:45:34;98622.81;;;20.87;100.00
40315;BME280;26021;45.640;11.302;2022-07-29T00:47:59;98616.97;;;20.61;100.00
40315;BME280;26021;45.640;11.302;2022-07-29T00:50:25;98625.94;;;20.79;100.00
40315;BME280;26021;45.640;11.302;2022-07-29T00:52:52;98613.34;;;20.56;100.00
40315;BME280;26021;45.640;11.302;2022-07-29T00:55:18;98607.28;;;20.37;100.00
40315;BME280;26021;45.640;11.302;2022-07-29T00:57:44;98612.50;;;20.55;100.00
40315;BME280;26021;45.640;11.302;2022-07-29T01:00:14;98603.34;;;20.78;100.00
40315;BME280;26021;45.640;11.302;2022-07-29T01:02:40;98593.56;;;20.77;100.00
40315;BME280;26021;45.640;11.302;2022-07-29T01:05:06;98601.00;;;20.82;100.00
40315;BME280;26021;45.640;11.302;2022-07-29T01:07:35;98540.00;;;20.39;100.00
40315;BME280;26021;45.640;11.302;2022-07-29T01:10:03;98607.91;;;20.89;100.00
40315;BME280;26021;45.640;11.302;2022-07-29T01:12:30;98603.44;;;20.67;100.00
40315;BME280;26021;45.640;11.302;2022-07-29T01:14:59;98571.41;;;20.35;100.00
40315;BME280;26021;45.640;11.302;2022-07-29T01:29:05;98604.66;;;20.25;100.00
40315;BME280;26021;45.640;11.302;2022-07-29T01:31:39;98605.06;;;20.17;100.00
40315;BME280;26021;45.640;11.302;2022-07-29T01:34:08;98602.59;;;20.33;100.00
40315;BME280;26021;45.640;11.302;2022-07-29T01:37:01;98604.50;;;20.32;100.00
40315;BME280;26021;45.640;11.302;2022-07-29T01:39:32;98605.19;;;20.39;100.00
40315;BME280;26021;45.640;11.302;2022-07-29T01:44:45;98600.53;;;20.23;100.00
40315;BME280;26021;45.640;11.302;2022-07-29T01:47:15;98597.25;;;20.21;100.00
40315;BME280;26021;45.640;11.302;2022-07-29T01:49:47;98592.44;;;20.11;100.00
40315;BME280;26021;45.640;11.302;2022-07-29T01:52:56;98599.94;;;20.21;100.00
40315;BME280;26021;45.640;11.302;2022-07-29T01:55:26;98597.81;;;20.23;100.00
40315;BME280;26021;45.640;11.302;2022-07-29T01:57:55;98585.38;;;20.10;100.00
40315;BME280;26021;45.640;11.302;2022-07-29T02:00:22;98592.22;;;20.29;100.00
40315;BME280;26021;45.640;11.302;2022-07-29T02:02:48;98578.75;;;20.06;100.00
40315;BME280;26021;45.640;11.302;2022-07-29T02:05:18;98596.00;;;20.12;100.00
40315;BME280;26021;45.640;11.302;2022-07-29T02:07:47;98584.97;;;20.18;100.00
40315;BME280;26021;45.640;11.302;2022-07-29T02:10:14;98590.91;;;20.15;100.00
40315;BME280;26021;45.640;11.302;2022-07-29T02:12:43;98592.13;;;20.24;100.00
40315;BME280;26021;45.640;11.302;2022-07-29T02:15:11;98593.63;;;20.32;100.00
40315;BME280;26021;45.640;11.302;2022-07-29T02:17:52;98591.50;;;20.06;100.00
40315;BME280;26021;45.640;11.302;2022-07-29T02:20:22;98543.75;;;19.76;100.00
40315;BME280;26021;45.640;11.302;2022-07-29T02:22:49;98582.50;;;19.88;100.00
40315;BME280;26021;45.640;11.302;2022-07-29T02:25:15;98587.22;;;19.93;100.00
40315;BME280;26021;45.640;11.302;2022-07-29T02:27:42;98589.78;;;19.71;100.00
40315;BME280;26021;45.640;11.302;2022-07-29T02:30:08;98586.13;;;19.94;100.00
40315;BME280;26021;45.640;11.302;2022-07-29T02:32:37;98589.28;;;20.03;100.00
40315;BME280;26021;45.640;11.302;2022-07-29T02:35:06;98542.19;;;19.80;100.00
40315;BME280;26021;45.640;11.302;2022-07-29T02:37:33;98583.38;;;20.06;100.00
40315;BME280;26021;45.640;11.302;2022-07-29T02:40:01;98578.44;;;20.03;100.00
40315;BME280;26021;45.640;11.302;2022-07-29T02:42:27;98570.25;;;20.14;100.00
40315;BME280;26021;45.640;11.302;2022-07-29T02:44:53;98588.19;;;20.15;100.00
40315;BME280;26021;45.640;11.302;2022-07-29T02:47:23;98587.94;;;19.88;100.00
40315;BME280;26021;45.640;11.302;2022-07-29T02:52:37;98542.41;;;19.62;100.00
40315;BME280;26021;45.640;11.302;2022-07-29T02:58:01;98602.50;;;20.11;100.00
40315;BME280;26021;45.640;11.302;2022-07-29T03:00:29;98570.66;;;19.78;100.00
40315;BME280;26021;45.640;11.302;2022-07-29T03:02:57;98619.00;;;19.81;100.00
40315;BME280;26021;45.640;11.302;2022-07-29T03:05:24;98575.69;;;19.46;100.00
40315;BME280;26021;45.640;11.302;2022-07-29T03:07:57;98619.19;;;19.51;100.00
40315;BME280;26021;45.640;11.302;2022-07-29T03:10:25;98614.00;;;19.49;100.00
40315;BME280;26021;45.640;11.302;2022-07-29T03:12:51;98574.19;;;19.38;100.00
40315;BME280;26021;45.640;11.302;2022-07-29T03:15:19;98606.53;;;19.68;100.00
40315;BME280;26021;45.640;11.302;2022-07-29T03:17:45;98617.91;;;19.42;100.00
40315;BME280;26021;45.640;11.302;2022-07-29T03:20:11;98615.31;;;19.47;100.00
40315;BME280;26021;45.640;11.302;2022-07-29T03:22:42;98619.69;;;19.36;100.00
40315;BME280;26021;45.640;11.302;2022-07-29T03:25:12;98610.84;;;19.41;100.00
40315;BME280;26021;45.640;11.302;2022-07-29T03:27:37;98617.28;;;19.63;100.00
40315;BME280;26021;45.640;11.302;2022-07-29T03:30:04;98545.31;;;19.20;100.00
40315;BME280;26021;45.640;11.302;2022-07-29T03:32:30;98612.56;;;19.70;100.00
40315;BME280;26021;45.640;11.302;2022-07-29T03:34:55;98611.19;;;19.56;100.00
40315;BME280;26021;45.640;11.302;2022-07-29T03:37:20;98614.00;;;19.61;100.00
40315;BME280;26021;45.640;11.302;2022-07-29T03:39:47;98618.41;;;19.79;100.00
40315;BME280;26021;45.640;11.302;2022-07-29T03:42:15;98562.41;;;19.32;100.00
40315;BME280;26021;45.640;11.302;2022-07-29T03:44:43;98618.19;;;19.80;100.00
40315;BME280;26021;45.640;11.302;2022-07-29T03:47:10;98619.09;;;19.86;100.00
40315;BME280;26021;45.640;11.302;2022-07-29T03:49:37;98627.28;;;19.74;100.00
40315;BME280;26021;45.640;11.302;2022-07-29T03:52:04;98621.72;;;19.81;100.00
40315;BME280;26021;45.640;11.302;2022-07-29T03:54:31;98631.66;;;19.75;100.00
40315;BME280;26021;45.640;11.302;2022-07-29T03:56:59;98626.75;;;19.60;100.00
40315;BME280;26021;45.640;11.302;2022-07-29T03:59:26;98613.34;;;19.82;100.00
40315;BME280;26021;45.640;11.302;2022-07-29T04:01:53;98578.16;;;19.47;100.00
40315;BME280;26021;45.640;11.302;2022-07-29T04:04:21;98629.41;;;19.72;100.00
40315;BME280;26021;45.640;11.302;2022-07-29T04:06:46;98627.88;;;19.76;100.00
40315;BME280;26021;45.640;11.302;2022-07-29T04:09:12;98619.00;;;19.81;100.00
40315;BME280;26021;45.640;11.302;2022-07-29T04:11:39;98624.47;;;19.69;100.00
40315;BME280;26021;45.640;11.302;2022-07-29T04:14:04;98621.13;;;19.79;100.00
40315;BME280;26021;45.640;11.302;2022-07-29T04:16:30;98630.09;;;19.79;100.00
40315;BME280;26021;45.640;11.302;2022-07-29T04:18:56;98631.66;;;19.75;100.00
40315;BME280;26021;45.640;11.302;2022-07-29T04:21:22;98621.66;;;19.92;100.00
40315;BME280;26021;45.640;11.302;2022-07-29T04:23:47;98600.41;;;19.73;100.00
40315;BME280;26021;45.640;11.302;2022-07-29T04:26:18;98624.00;;;20.00;100.00
40315;BME280;26021;45.640;11.302;2022-07-29T04:28:44;98632.59;;;20.09;100.00
40315;BME280;26021;45.640;11.302;2022-07-29T04:31:11;98631.47;;;20.22;100.00
40315;BME280;26021;45.640;11.302;2022-07-29T04:33:37;98637.66;;;20.34;100.00
40315;BME280;26021;45.640;11.302;2022-07-29T04:36:02;98629.41;;;20.29;100.00
40315;BME280;26021;45.640;11.302;2022-07-29T04:38:28;98618.81;;;20.27;100.00
40315;BME280;26021;45.640;11.302;2022-07-29T04:40:53;98643.66;;;20.36;100.00
40315;BME280;26021;45.640;11.302;2022-07-29T04:43:19;98632.72;;;20.31;100.00
40315;BME280;26021;45.640;11.302;2022-07-29T04:45:44;98633.06;;;20.35;100.00
40315;BME280;26021;45.640;11.302;2022-07-29T04:48:10;98640.13;;;20.36;100.00
40315;BME280;26021;45.640;11.302;2022-07-29T04:50:38;98637.38;;;20.19;100.00
40315;BME280;26021;45.640;11.302;2022-07-29T04:53:03;98642.09;;;20.23;100.00
40315;BME280;26021;45.640;11.302;2022-07-29T04:55:29;98626.78;;;20.17;100.00
40315;BME280;26021;45.640;11.302;2022-07-29T04:57:54;98624.53;;;20.14;100.00
40315;BME280;26021;45.640;11.302;2022-07-29T05:00:20;98633.53;;;20.03;100.00
40315;BME280;26021;45.640;11.302;2022-07-29T05:02:45;98632.59;;;20.09;100.00
40315;BME280;26021;45.640;11.302;2022-07-29T05:05:11;98637.06;;;20.15;100.00
40315;BME280;26021;45.640;11.302;2022-07-29T05:07:36;98641.66;;;20.43;100.00
40315;BME280;26021;45.640;11.302;2022-07-29T05:10:02;98639.63;;;20.39;100.00
40315;BME280;26021;45.640;11.302;2022-07-29T05:12:28;98639.03;;;20.48;100.00
40315;BME280;26021;45.640;11.302;2022-07-29T05:14:53;98643.13;;;20.51;100.00
40315;BME280;26021;45.640;11.302;2022-07-29T05:17:19;98644.38;;;20.77;100.00
40315;BME280;26021;45.640;11.302;2022-07-29T05:19:45;98651.22;;;20.79;100.00
40315;BME280;26021;45.640;11.302;2022-07-29T05:22:10;98646.63;;;20.97;100.00
40315;BME280;26021;45.640;11.302;2022-07-29T05:24:36;98493.47;;;20.36;100.00
40315;BME280;26021;45.640;11.302;2022-07-29T05:27:01;98581.38;;;20.97;100.00
40315;BME280;26021;45.640;11.302;2022-07-29T05:29:26;98649.56;;;21.50;100.00
40315;BME280;26021;45.640;11.302;2022-07-29T05:31:52;98630.63;;;21.55;100.00
40315;BME280;26021;45.640;11.302;2022-07-29T05:34:18;98475.25;;;20.70;100.00
40315;BME280;26021;45.640;11.302;2022-07-29T05:36:44;98650.81;;;21.81;100.00
40315;BME280;26021;45.640;11.302;2022-07-29T05:39:10;98649.75;;;21.61;100.00
40315;BME280;26021;45.640;11.302;2022-07-29T05:41:36;98640.50;;;21.62;100.00
40315;BME280;26021;45.640;11.302;2022-07-29T05:44:01;98654.69;;;21.64;100.00
40315;BME280;26021;45.640;11.302;2022-07-29T05:46:27;98651.78;;;21.53;100.00
40315;BME280;26021;45.640;11.302;2022-07-29T05:48:53;98653.63;;;21.48;100.00
40315;BME280;26021;45.640;11.302;2022-07-29T05:51:18;98657.47;;;21.69;100.00
40315;BME280;26021;45.640;11.302;2022-07-29T05:53:44;98651.19;;;21.90;100.00
40315;BME280;26021;45.640;11.302;2022-07-29T05:56:10;98607.06;;;21.88;100.00
40315;BME280;26021;45.640;11.302;2022-07-29T05:58:35;98653.50;;;22.52;100.00
40315;BME280;26021;45.640;11.302;2022-07-29T06:01:01;98658.25;;;22.67;100.00
40315;BME280;26021;45.640;11.302;2022-07-29T06:03:27;98668.75;;;23.12;100.00
40315;BME280;26021;45.640;11.302;2022-07-29T06:05:53;98671.31;;;23.29;100.00
40315;BME280;26021;45.640;11.302;2022-07-29T06:08:19;98656.44;;;23.52;100.00
40315;BME280;26021;45.640;11.302;2022-07-29T06:10:44;98644.91;;;23.87;100.00
40315;BME280;26021;45.640;11.302;2022-07-29T06:13:11;98649.19;;;23.72;100.00
40315;BME280;26021;45.640;11.302;2022-07-29T06:15:36;98606.47;;;23.51;100.00
40315;BME280;26021;45.640;11.302;2022-07-29T06:18:02;98652.06;;;24.03;100.00
40315;BME280;26021;45.640;11.302;2022-07-29T06:20:30;98652.97;;;24.29;100.00
40315;BME280;26021;45.640;11.302;2022-07-29T06:22:56;98648.31;;;24.29;100.00
40315;BME280;26021;45.640;11.302;2022-07-29T06:25:22;98648.38;;;24.65;100.00
40315;BME280;26021;45.640;11.302;2022-07-29T06:27:48;98643.19;;;24.63;100.00
40315;BME280;26021;45.640;11.302;2022-07-29T06:30:13;98654.13;;;24.63;100.00
40315;BME280;26021;45.640;11.302;2022-07-29T06:32:39;98656.28;;;24.51;100.00
40315;BME280;26021;45.640;11.302;2022-07-29T06:35:04;98639.03;;;24.35;100.00
40315;BME280;26021;45.640;11.302;2022-07-29T06:37:30;98652.44;;;24.47;100.00
40315;BME280;26021;45.640;11.302;2022-07-29T06:39:56;98659.84;;;24.87;100.00
40315;BME280;26021;45.640;11.302;2022-07-29T06:42:43;98649.75;;;25.13;97.42
40315;BME280;26021;45.640;11.302;2022-07-29T06:45:10;98646.47;;;25.01;98.64
40315;BME280;26021;45.640;11.302;2022-07-29T06:47:35;98646.41;;;25.42;95.43
40315;BME280;26021;45.640;11.302;2022-07-29T06:50:01;98611.28;;;25.64;96.19
40315;BME280;26021;45.640;11.302;2022-07-29T06:52:27;98642.06;;;26.10;90.33
40315;BME280;26021;45.640;11.302;2022-07-29T06:54:52;98648.97;;;26.03;84.10
40315;BME280;26021;45.640;11.302;2022-07-29T06:57:20;98652.78;;;25.96;82.86
40315;BME280;26021;45.640;11.302;2022-07-29T06:59:45;98648.41;;;25.95;82.06
40315;BME280;26021;45.640;11.302;2022-07-29T07:02:11;98649.81;;;26.47;81.99
40315;BME280;26021;45.640;11.302;2022-07-29T07:04:36;98606.63;;;26.24;80.76
40315;BME280;26021;45.640;11.302;2022-07-29T07:07:02;98653.31;;;26.53;79.50
40315;BME280;26021;45.640;11.302;2022-07-29T07:09:28;98650.59;;;26.53;79.95
40315;BME280;26021;45.640;11.302;2022-07-29T07:11:53;98658.16;;;26.66;78.76
40315;BME280;26021;45.640;11.302;2022-07-29T07:14:19;98656.44;;;26.75;77.30
40315;BME280;26021;45.640;11.302;2022-07-29T07:16:44;98656.16;;;26.82;77.64
40315;BME280;26021;45.640;11.302;2022-07-29T07:19:09;98657.31;;;27.34;77.30
40315;BME280;26021;45.640;11.302;2022-07-29T07:21:35;98660.00;;;27.39;73.02
40315;BME280;26021;45.640;11.302;2022-07-29T07:24:00;98661.13;;;27.38;70.95
40315;BME280;26021;45.640;11.302;2022-07-29T07:26:26;98663.63;;;27.34;70.65
40315;BME280;26021;45.640;11.302;2022-07-29T07:28:52;98661.22;;;27.57;69.47
40315;BME280;26021;45.640;11.302;2022-07-29T07:31:18;98625.56;;;26.99;69.05
40315;BME280;26021;45.640;11.302;2022-07-29T07:33:43;98668.41;;;27.52;69.58
40315;BME280;26021;45.640;11.302;2022-07-29T07:36:09;98659.06;;;27.25;69.39
40315;BME280;26021;45.640;11.302;2022-07-29T07:38:34;98666.38;;;27.34;67.59
40315;BME280;26021;45.640;11.302;2022-07-29T07:41:00;98549.63;;;26.89;68.97
40315;BME280;26021;45.640;11.302;2022-07-29T07:43:26;98667.75;;;27.66;64.09
40315;BME280;26021;45.640;11.302;2022-07-29T07:45:52;98657.88;;;27.60;64.71
40315;BME280;26021;45.640;11.302;2022-07-29T07:48:17;98656.22;;;27.64;64.63
40315;BME280;26021;45.640;11.302;2022-07-29T07:50:43;98656.63;;;27.76;66.11
40315;BME280;26021;45.640;11.302;2022-07-29T07:53:09;98665.56;;;27.87;67.99
40315;BME280;26021;45.640;11.302;2022-07-29T07:55:39;98660.34;;;27.85;67.43
40315;BME280;26021;45.640;11.302;2022-07-29T07:58:05;98676.41;;;27.97;66.18
40315;BME280;26021;45.640;11.302;2022-07-29T08:00:30;98658.22;;;28.01;62.57
40315;BME280;26021;45.640;11.302;2022-07-29T08:02:57;98636.22;;;27.82;62.65
40315;BME280;26021;45.640;11.302;2022-07-29T08:05:22;98662.47;;;28.12;61.22
40315;BME280;26021;45.640;11.302;2022-07-29T08:07:48;98662.75;;;27.92;63.02
40315;BME280;26021;45.640;11.302;2022-07-29T08:10:15;98662.47;;;28.12;61.71
40315;BME280;26021;45.640;11.302;2022-07-29T08:13:08;98680.94;;;27.88;68.79
40315;BME280;26021;45.640;11.302;2022-07-29T08:15:34;98647.28;;;27.96;66.74
40315;BME280;26021;45.640;11.302;2022-07-29T08:18:00;98646.78;;;28.36;67.89
40315;BME280;26021;45.640;11.302;2022-07-29T08:20:26;98674.13;;;28.46;66.33
40315;BME280;26021;45.640;11.302;2022-07-29T08:22:52;98647.72;;;27.84;67.96
40315;BME280;26021;45.640;11.302;2022-07-29T08:25:18;98657.66;;;28.23;65.35
40315;BME280;26021;45.640;11.302;2022-07-29T08:27:48;98652.22;;;28.41;63.90
40315;BME280;26021;45.640;11.302;2022-07-29T08:30:14;98607.63;;;28.21;64.20
40315;BME280;26021;45.640;11.302;2022-07-29T08:32:40;98648.84;;;28.44;63.59
40315;BME280;26021;45.640;11.302;2022-07-29T08:35:05;98648.13;;;28.39;63.18
40315;BME280;26021;45.640;11.302;2022-07-29T08:37:31;98639.59;;;28.16;64.62
40315;BME280;26021;45.640;11.302;2022-07-29T08:39:57;98642.53;;;28.25;63.41
40315;BME280;26021;45.640;11.302;2022-07-29T08:42:22;98641.16;;;28.23;65.28
40315;BME280;26021;45.640;11.302;2022-07-29T08:44:48;98605.19;;;28.19;66.03
40315;BME280;26021;45.640;11.302;2022-07-29T08:47:14;98637.31;;;28.61;64.92
40315;BME280;26021;45.640;11.302;2022-07-29T08:49:40;98643.38;;;28.77;64.91
40315;BME280;26021;45.640;11.302;2022-07-29T08:52:06;98601.88;;;28.41;65.36
40315;BME280;26021;45.640;11.302;2022-07-29T08:54:32;98642.69;;;28.34;66.86
40315;BME280;26021;45.640;11.302;2022-07-29T08:56:59;98572.94;;;27.87;67.76
40315;BME280;26021;45.640;11.302;2022-07-29T08:59:27;98639.94;;;28.53;69.68
40315;BME280;26021;45.640;11.302;2022-07-29T09:01:54;98631.25;;;28.45;69.13
40315;BME280;26021;45.640;11.302;2022-07-29T09:04:20;98641.31;;;28.69;67.11
40315;BME280;26021;45.640;11.302;2022-07-29T09:06:48;98640.75;;;28.53;67.24
40315;BME280;26021;45.640;11.302;2022-07-29T09:09:15;98559.34;;;27.96;67.82
40315;BME280;26021;45.640;11.302;2022-07-29T09:11:41;98527.31;;;27.86;68.59
40315;BME280;26021;45.640;11.302;2022-07-29T09:14:07;98633.78;;;28.42;70.45
40315;BME280;26021;45.640;11.302;2022-07-29T09:16:51;98631.66;;;28.71;67.70
40315;BME280;26021;45.640;11.302;2022-07-29T09:19:27;98621.44;;;28.72;68.81
40315;BME280;26021;45.640;11.302;2022-07-29T09:21:54;98628.84;;;28.58;68.89
40315;BME280;26021;45.640;11.302;2022-07-29T09:24:23;98635.13;;;28.77;68.01
40315;BME280;26021;45.640;11.302;2022-07-29T09:26:48;98628.38;;;28.69;68.21
40315;BME280;26021;45.640;11.302;2022-07-29T09:29:18;98620.91;;;28.89;68.63
40315;BME280;26021;45.640;11.302;2022-07-29T09:31:46;98622.03;;;29.20;67.31
40315;BME280;26021;45.640;11.302;2022-07-29T09:34:21;98624.41;;;28.75;68.16
40315;BME280;26021;45.640;11.302;2022-07-29T09:36:49;98605.16;;;28.75;67.83
40315;BME280;26021;45.640;11.302;2022-07-29T09:39:16;98613.38;;;28.94;68.77
40315;BME280;26021;45.640;11.302;2022-07-29T09:41:53;98616.53;;;29.34;68.78
40315;BME280;26021;45.640;11.302;2022-07-29T09:44:20;98577.34;;;29.09;67.10
40315;BME280;26021;45.640;11.302;2022-07-29T09:46:58;98616.16;;;29.68;68.69
40315;BME280;26021;45.640;11.302;2022-07-29T09:49:24;98597.78;;;29.63;64.68
40315;BME280;26021;45.640;11.302;2022-07-29T09:52:02;98605.44;;;29.66;65.57
40315;BME280;26021;45.640;11.302;2022-07-29T09:54:28;98602.38;;;29.82;66.85
40315;BME280;26021;45.640;11.302;2022-07-29T09:56:59;98507.72;;;28.76;65.58
40315;BME280;26021;45.640;11.302;2022-07-29T09:59:24;98610.13;;;29.52;67.31
40315;BME280;26021;45.640;11.302;2022-07-29T10:01:52;98600.03;;;29.61;66.83
40315;BME280;26021;45.640;11.302;2022-07-29T10:04:18;98599.38;;;29.23;69.12
40315;BME280;26021;45.640;11.302;2022-07-29T10:07:00;98593.19;;;29.45;66.86
40315;BME280;26021;45.640;11.302;2022-07-29T10:09:26;98550.63;;;29.10;67.58
40315;BME280;26021;45.640;11.302;2022-07-29T10:12:05;98597.66;;;29.41;68.19
40315;BME280;26021;45.640;11.302;2022-07-29T10:14:32;98592.34;;;29.31;68.58
40315;BME280;26021;45.640;11.302;2022-07-29T10:16:59;98608.28;;;29.61;66.80
40315;BME280;26021;45.640;11.302;2022-07-29T10:19:27;98609.81;;;29.40;66.98
40315;BME280;26021;45.640;11.302;2022-07-29T10:21:53;98598.97;;;29.16;67.91
40315;BME280;26021;45.640;11.302;2022-07-29T10:24:19;98555.56;;;28.94;68.30
40315;BME280;26021;45.640;11.302;2022-07-29T10:26:46;98595.63;;;29.60;69.57
40315;BME280;26021;45.640;11.302;2022-07-29T10:29:13;98562.03;;;29.72;66.46
40315;BME280;26021;45.640;11.302;2022-07-29T10:40:27;98575.47;;;30.01;63.54
40315;BME280;26021;45.640;11.302;2022-07-29T10:43:28;98555.13;;;29.20;67.54
40315;BME280;26021;45.640;11.302;2022-07-29T10:45:59;98572.66;;;29.65;65.03
40315;BME280;26021;45.640;11.302;2022-07-29T10:48:25;98563.09;;;29.49;65.53
40315;BME280;26021;45.640;11.302;2022-07-29T10:51:01;98567.56;;;29.86;64.87
40315;BME280;26021;45.640;11.302;2022-07-29T10:53:53;98571.63;;;30.02;65.39
40315;BME280;26021;45.640;11.302;2022-07-29T11:01:52;98546.50;;;30.26;64.15
40315;BME280;26021;45.640;11.302;2022-07-29T11:07:08;98508.34;;;29.83;63.70
40315;BME280;26021;45.640;11.302;2022-07-29T11:09:33;98547.94;;;30.46;63.21
40315;BME280;26021;45.640;11.302;2022-07-29T11:11:59;98510.03;;;30.29;63.44
40315;BME280;26021;45.640;11.302;2022-07-29T11:17:19;98550.13;;;30.49;63.13
40315;BME280;26021;45.640;11.302;2022-07-29T11:19:45;98516.72;;;30.36;63.74
40315;BME280;26021;45.640;11.302;2022-07-29T11:22:31;98545.72;;;30.70;63.32
40315;BME280;26021;45.640;11.302;2022-07-29T11:25:17;98517.63;;;30.23;63.22
40315;BME280;26021;45.640;11.302;2022-07-29T11:27:44;98432.94;;;29.65;63.69
40315;BME280;26021;45.640;11.302;2022-07-29T11:30:10;98538.75;;;30.50;63.99
40315;BME280;26021;45.640;11.302;2022-07-29T11:32:38;98539.31;;;30.83;62.96
40315;BME280;26021;45.640;11.302;2022-07-29T11:35:21;98482.41;;;30.74;63.03
40315;BME280;26021;45.640;11.302;2022-07-29T11:43:58;98537.25;;;30.97;62.51
40315;BME280;26021;45.640;11.302;2022-07-29T11:46:43;98523.50;;;30.75;62.66
40315;BME280;26021;45.640;11.302;2022-07-29T11:49:09;98520.03;;;30.61;62.63
40315;BME280;26021;45.640;11.302;2022-07-29T11:51:38;98527.53;;;30.69;63.85
40315;BME280;26021;45.640;11.302;2022-07-29T11:54:05;98480.41;;;30.96;62.01
40315;BME280;26021;45.640;11.302;2022-07-29T11:56:31;98522.19;;;31.35;61.55
40315;BME280;26021;45.640;11.302;2022-07-29T11:59:07;98513.94;;;31.60;59.75
40315;BME280;26021;45.640;11.302;2022-07-29T12:01:35;98520.16;;;31.18;61.32
40315;BME280;26021;45.640;11.302;2022-07-29T12:04:07;98516.13;;;31.24;61.29
40315;BME280;26021;45.640;11.302;2022-07-29T12:06:34;98514.47;;;31.71;59.10
40315;BME280;26021;45.640;11.302;2022-07-29T12:08:59;98478.31;;;31.59;58.73
40315;BME280;26021;45.640;11.302;2022-07-29T12:11:25;98497.41;;;31.86;58.53
40315;BME280;26021;45.640;11.302;2022-07-29T12:13:51;98504.22;;;31.89;58.51
40315;BME280;26021;45.640;11.302;2022-07-29T12:16:17;98508.94;;;31.88;58.33
40315;BME280;26021;45.640;11.302;2022-07-29T12:18:57;98453.94;;;31.52;58.41
40315;BME280;26021;45.640;11.302;2022-07-29T12:21:23;98499.78;;;31.62;58.60
40315;BME280;26021;45.640;11.302;2022-07-29T12:23:53;98363.72;;;30.74;59.29
40315;BME280;26021;45.640;11.302;2022-07-29T12:26:20;98481.56;;;31.52;59.45
40315;BME280;26021;45.640;11.302;2022-07-29T12:28:45;98505.50;;;31.66;59.57
40315;BME280;26021;45.640;11.302;2022-07-29T12:31:15;98507.44;;;31.56;58.93
40315;BME280;26021;45.640;11.302;2022-07-29T12:33:41;98448.06;;;31.37;60.23
40315;BME280;26021;45.640;11.302;2022-07-29T12:36:07;98477.72;;;31.71;57.58
40315;BME280;26021;45.640;11.302;2022-07-29T12:38:34;98494.31;;;31.88;58.27
40315;BME280;26021;45.640;11.302;2022-07-29T12:41:00;98489.75;;;31.83;58.52
40315;BME280;26021;45.640;11.302;2022-07-29T12:43:26;98455.59;;;31.71;57.63
40315;BME280;26021;45.640;11.302;2022-07-29T12:45:54;98495.81;;;32.03;57.26
40315;BME280;26021;45.640;11.302;2022-07-29T12:48:37;98425.94;;;31.28;57.61
40315;BME280;26021;45.640;11.302;2022-07-29T12:51:04;98495.16;;;32.06;57.43
40315;BME280;26021;45.640;11.302;2022-07-29T12:53:31;98487.19;;;32.04;56.40
40315;BME280;26021;45.640;11.302;2022-07-29T12:55:57;98480.50;;;32.14;55.97
40315;BME280;26021;45.640;11.302;2022-07-29T12:58:36;98486.19;;;32.17;56.13
40315;BME280;26021;45.640;11.302;2022-07-29T13:01:13;98457.25;;;31.98;54.91
40315;BME280;26021;45.640;11.302;2022-07-29T13:03:55;98478.53;;;32.40;54.55
40315;BME280;26021;45.640;11.302;2022-07-29T13:06:42;98448.25;;;32.35;54.51
40315;BME280;26021;45.640;11.302;2022-07-29T13:09:15;98470.50;;;32.56;53.93
40315;BME280;26021;45.640;11.302;2022-07-29T13:11:49;98469.81;;;32.76;53.10
40315;BME280;26021;45.640;11.302;2022-07-29T13:14:35;98454.72;;;32.57;53.67
40315;BME280;26021;45.640;11.302;2022-07-29T13:20:03;98452.53;;;31.98;55.31
40315;BME280;26021;45.640;11.302;2022-07-29T13:22:31;98449.19;;;32.48;54.81
40315;BME280;26021;45.640;11.302;2022-07-29T13:24:59;98439.25;;;32.55;55.39
40315;BME280;26021;45.640;11.302;2022-07-29T13:27:28;98430.19;;;32.20;54.95
40315;BME280;26021;45.640;11.302;2022-07-29T13:29:56;98411.94;;;32.45;55.67
40315;BME280;26021;45.640;11.302;2022-07-29T13:32:23;98423.19;;;32.87;52.63
40315;BME280;26021;45.640;11.302;2022-07-29T13:34:49;98425.34;;;32.73;52.95
40315;BME280;26021;45.640;11.302;2022-07-29T13:37:15;98370.22;;;32.50;51.15
40315;BME280;26021;45.640;11.302;2022-07-29T13:39:42;98417.72;;;32.61;52.23